sensor_id;sensor_type;location;lat;lon;timestamp;temperature;humidity
12164;DHT22;6145;50.192;10.064;2024-03-02T00:00:44;21.50;54.80
12164;DHT22;6145;50.192;10.064;2024-03-02T00:03:12;21.50;54.80
12164;DHT22;6145;50.192;10.064;2024-03-02T00:05:39;21.50;54.80
12164;DHT22;6145;50.192;10.064;2024-03-02T00:08:07;21.50;54.80
12164;DHT22;6145;50.192;10.064;2024-03-02T00:10:37;21.50;54.80
12164;DHT22;6145;50.192;10.064;2024-03-02T00:13:05;21.50;54.80
12164;DHT22;6145;50.192;10.064;2024-03-02T00:15:46;21.50;54.80
12164;DHT22;6145;50.192;10.064;2024-03-02T00:18:16;21.50;54.80
12164;DHT22;6145;50.192;10.064;2024-03-02T00:20:44;21.50;54.80
12164;DHT22;6145;50.192;10.064;2024-03-02T00:23:14;21.40;54.70
12164;DHT22;6145;50.192;10.064;2024-03-02T00:25:44;21.40;54.70
12164;DHT22;6145;50.192;10.064;2024-03-02T00:28:14;21.40;54.70
12164;DHT22;6145;50.192;10.064;2024-03-02T00:30:55;21.40;54.70
12164;DHT22;6145;50.192;10.064;2024-03-02T00:33:23;21.40;54.70
12164;DHT22;6145;50.192;10.064;2024-03-02T00:35:52;21.30;54.70
12164;DHT22;6145;50.192;10.064;2024-03-02T00:38:19;21.30;54.70
12164;DHT22;6145;50.192;10.064;2024-03-02T00:40:47;21.30;54.70
12164;DHT22;6145;50.192;10.064;2024-03-02T00:46:12;21.40;54.70
12164;DHT22;6145;50.192;10.064;2024-03-02T00:48:40;21.30;54.70
12164;DHT22;6145;50.192;10.064;2024-03-02T00:51:11;21.30;54.70
12164;DHT22;6145;50.192;10.064;2024-03-02T00:53:38;21.30;54.70
12164;DHT22;6145;50.192;10.064;2024-03-02T00:56:09;21.30;54.70
12164;DHT22;6145;50.192;10.064;2024-03-02T00:58:37;21.30;54.70
12164;DHT22;6145;50.192;10.064;2024-03-02T01:01:03;21.30;54.70
12164;DHT22;6145;50.192;10.064;2024-03-02T01:03:31;21.30;54.70
12164;DHT22;6145;50.192;10.064;2024-03-02T01:05:58;21.30;54.70
12164;DHT22;6145;50.192;10.064;2024-03-02T01:08:25;21.30;54.60
12164;DHT22;6145;50.192;10.064;2024-03-02T01:10:52;21.30;54.70
12164;DHT22;6145;50.192;10.064;2024-03-02T01:13:21;21.30;54.60
12164;DHT22;6145;50.192;10.064;2024-03-02T01:15:48;21.30;54.60
12164;DHT22;6145;50.192;10.064;2024-03-02T01:18:15;21.30;54.60
12164;DHT22;6145;50.192;10.064;2024-03-02T01:20:42;21.30;54.60
12164;DHT22;6145;50.192;10.064;2024-03-02T01:23:08;21.30;54.60
12164;DHT22;6145;50.192;10.064;2024-03-02T01:25:35;21.20;54.50
12164;DHT22;6145;50.192;10.064;2024-03-02T01:28:02;21.20;54.50
12164;DHT22;6145;50.192;10.064;2024-03-02T01:30:30;21.20;54.50
12164;DHT22;6145;50.192;10.064;2024-03-02T01:32:57;21.20;54.50
12164;DHT22;6145;50.192;10.064;2024-03-02T01:35:24;21.20;54.60
12164;DHT22;6145;50.192;10.064;2024-03-02T01:37:52;21.20;54.60
12164;DHT22;6145;50.192;10.064;2024-03-02T01:40:18;21.20;54.60
12164;DHT22;6145;50.192;10.064;2024-03-02T01:42:45;21.20;54.70
12164;DHT22;6145;50.192;10.064;2024-03-02T01:45:12;21.20;55.30
12164;DHT22;6145;50.192;10.064;2024-03-02T01:47:40;21.20;54.70
12164;DHT22;6145;50.192;10.064;2024-03-02T01:50:07;21.10;54.60
12164;DHT22;6145;50.192;10.064;2024-03-02T01:52:37;21.10;54.60
12164;DHT22;6145;50.192;10.064;2024-03-02T01:55:04;21.10;54.60
12164;DHT22;6145;50.192;10.064;2024-03-02T01:57:33;21.10;55.20
12164;DHT22;6145;50.192;10.064;2024-03-02T02:00:00;21.10;54.70
12164;DHT22;6145;50.192;10.064;2024-03-02T02:02:27;21.10;54.70
12164;DHT22;6145;50.192;10.064;2024-03-02T02:04:55;21.00;54.60
12164;DHT22;6145;50.192;10.064;2024-03-02T02:07:22;21.00;54.60
12164;DHT22;6145;50.192;10.064;2024-03-02T02:09:48;21.00;54.60
12164;DHT22;6145;50.192;10.064;2024-03-02T02:12:15;21.00;54.60
12164;DHT22;6145;50.192;10.064;2024-03-02T02:14:47;21.00;54.60
12164;DHT22;6145;50.192;10.064;2024-03-02T02:17:14;21.00;54.60
12164;DHT22;6145;50.192;10.064;2024-03-02T02:19:41;21.00;54.60
12164;DHT22;6145;50.192;10.064;2024-03-02T02:22:09;21.00;54.60
12164;DHT22;6145;50.192;10.064;2024-03-02T02:24:36;21.00;54.60
12164;DHT22;6145;50.192;10.064;2024-03-02T02:27:05;21.00;54.70
12164;DHT22;6145;50.192;10.064;2024-03-02T02:29:32;20.90;54.50
12164;DHT22;6145;50.192;10.064;2024-03-02T02:31:59;20.90;54.50
12164;DHT22;6145;50.192;10.064;2024-03-02T02:34:26;20.90;54.50
12164;DHT22;6145;50.192;10.064;2024-03-02T02:36:53;20.90;54.50
12164;DHT22;6145;50.192;10.064;2024-03-02T02:39:21;20.90;54.50
12164;DHT22;6145;50.192;10.064;2024-03-02T02:41:48;20.90;54.50
12164;DHT22;6145;50.192;10.064;2024-03-02T02:44:15;20.90;54.50
12164;DHT22;6145;50.192;10.064;2024-03-02T02:46:42;20.90;54.60
12164;DHT22;6145;50.192;10.064;2024-03-02T02:49:08;20.90;54.50
12164;DHT22;6145;50.192;10.064;2024-03-02T02:51:35;20.90;54.60
12164;DHT22;6145;50.192;10.064;2024-03-02T02:54:02;20.80;54.50
12164;DHT22;6145;50.192;10.064;2024-03-02T02:56:30;20.80;54.50
12164;DHT22;6145;50.192;10.064;2024-03-02T02:58:57;20.80;54.50
12164;DHT22;6145;50.192;10.064;2024-03-02T03:01:24;20.80;54.50
12164;DHT22;6145;50.192;10.064;2024-03-02T03:03:51;20.80;54.50
12164;DHT22;6145;50.192;10.064;2024-03-02T03:06:17;20.80;54.50
12164;DHT22;6145;50.192;10.064;2024-03-02T03:08:44;20.80;54.50
12164;DHT22;6145;50.192;10.064;2024-03-02T03:11:11;20.70;54.40
12164;DHT22;6145;50.192;10.064;2024-03-02T03:13:39;20.80;55.10
12164;DHT22;6145;50.192;10.064;2024-03-02T03:16:06;20.70;54.40
12164;DHT22;6145;50.192;10.064;2024-03-02T03:18:32;20.70;54.40
12164;DHT22;6145;50.192;10.064;2024-03-02T03:20:58;20.70;54.40
12164;DHT22;6145;50.192;10.064;2024-03-02T03:23:25;20.70;54.40
12164;DHT22;6145;50.192;10.064;2024-03-02T03:25:51;20.70;54.40
12164;DHT22;6145;50.192;10.064;2024-03-02T03:28:18;20.70;54.40
12164;DHT22;6145;50.192;10.064;2024-03-02T03:30:46;20.70;54.40
12164;DHT22;6145;50.192;10.064;2024-03-02T03:33:13;20.70;54.40
12164;DHT22;6145;50.192;10.064;2024-03-02T03:35:40;20.70;54.40
12164;DHT22;6145;50.192;10.064;2024-03-02T03:38:07;20.70;54.40
12164;DHT22;6145;50.192;10.064;2024-03-02T03:40:33;20.70;54.40
12164;DHT22;6145;50.192;10.064;2024-03-02T03:43:00;20.70;54.50
12164;DHT22;6145;50.192;10.064;2024-03-02T03:45:27;20.60;54.40
12164;DHT22;6145;50.192;10.064;2024-03-02T03:47:57;20.60;54.40
12164;DHT22;6145;50.192;10.064;2024-03-02T03:50:24;20.60;54.40
12164;DHT22;6145;50.192;10.064;2024-03-02T03:52:50;20.60;54.40
12164;DHT22;6145;50.192;10.064;2024-03-02T03:55:17;20.60;54.40
12164;DHT22;6145;50.192;10.064;2024-03-02T03:57:44;20.60;54.40
12164;DHT22;6145;50.192;10.064;2024-03-02T04:00:12;20.60;54.40
12164;DHT22;6145;50.192;10.064;2024-03-02T04:02:39;20.60;54.40
12164;DHT22;6145;50.192;10.064;2024-03-02T04:05:08;20.60;54.40
12164;DHT22;6145;50.192;10.064;2024-03-02T04:07:36;20.60;54.40
12164;DHT22;6145;50.192;10.064;2024-03-02T04:10:07;20.60;54.40
12164;DHT22;6145;50.192;10.064;2024-03-02T04:12:35;20.60;54.40
12164;DHT22;6145;50.192;10.064;2024-03-02T04:15:02;20.60;54.40
12164;DHT22;6145;50.192;10.064;2024-03-02T04:17:30;20.60;54.40
12164;DHT22;6145;50.192;10.064;2024-03-02T04:19:57;20.60;54.30
12164;DHT22;6145;50.192;10.064;2024-03-02T04:22:26;20.60;54.30
12164;DHT22;6145;50.192;10.064;2024-03-02T04:24:53;20.60;54.30
12164;DHT22;6145;50.192;10.064;2024-03-02T04:27:19;20.60;54.30
12164;DHT22;6145;50.192;10.064;2024-03-02T04:29:46;20.60;54.30
12164;DHT22;6145;50.192;10.064;2024-03-02T04:32:13;20.60;54.30
12164;DHT22;6145;50.192;10.064;2024-03-02T04:34:40;20.60;54.30
12164;DHT22;6145;50.192;10.064;2024-03-02T04:37:06;20.60;54.20
12164;DHT22;6145;50.192;10.064;2024-03-02T04:39:35;20.60;54.20
12164;DHT22;6145;50.192;10.064;2024-03-02T04:42:03;20.60;54.20
12164;DHT22;6145;50.192;10.064;2024-03-02T04:44:29;20.60;54.20
12164;DHT22;6145;50.192;10.064;2024-03-02T04:46:56;20.60;54.20
12164;DHT22;6145;50.192;10.064;2024-03-02T04:49:23;20.60;54.20
12164;DHT22;6145;50.192;10.064;2024-03-02T04:51:50;20.60;54.20
12164;DHT22;6145;50.192;10.064;2024-03-02T04:54:16;20.50;54.10
12164;DHT22;6145;50.192;10.064;2024-03-02T04:56:44;20.50;54.10
12164;DHT22;6145;50.192;10.064;2024-03-02T04:59:15;20.60;54.20
12164;DHT22;6145;50.192;10.064;2024-03-02T05:01:42;20.60;54.20
12164;DHT22;6145;50.192;10.064;2024-03-02T05:04:09;20.60;54.20
12164;DHT22;6145;50.192;10.064;2024-03-02T05:06:37;20.60;54.20
12164;DHT22;6145;50.192;10.064;2024-03-02T05:09:04;20.60;54.10
12164;DHT22;6145;50.192;10.064;2024-03-02T05:11:31;20.60;54.20
12164;DHT22;6145;50.192;10.064;2024-03-02T05:14:23;20.60;54.10
12164;DHT22;6145;50.192;10.064;2024-03-02T05:16:49;20.50;54.10
12164;DHT22;6145;50.192;10.064;2024-03-02T05:19:16;20.50;54.10
12164;DHT22;6145;50.192;10.064;2024-03-02T05:21:42;20.50;54.10
12164;DHT22;6145;50.192;10.064;2024-03-02T05:24:09;20.50;54.10
12164;DHT22;6145;50.192;10.064;2024-03-02T05:26:35;20.50;54.10
12164;DHT22;6145;50.192;10.064;2024-03-02T05:29:02;20.50;54.10
12164;DHT22;6145;50.192;10.064;2024-03-02T05:31:30;20.50;54.10
12164;DHT22;6145;50.192;10.064;2024-03-02T05:33:57;20.50;54.10
12164;DHT22;6145;50.192;10.064;2024-03-02T05:36:24;20.50;54.10
12164;DHT22;6145;50.192;10.064;2024-03-02T05:38:51;20.50;54.10
12164;DHT22;6145;50.192;10.064;2024-03-02T05:41:18;20.50;54.10
12164;DHT22;6145;50.192;10.064;2024-03-02T05:43:44;20.50;54.10
12164;DHT22;6145;50.192;10.064;2024-03-02T05:46:11;20.40;54.00
12164;DHT22;6145;50.192;10.064;2024-03-02T05:48:39;20.40;54.00
12164;DHT22;6145;50.192;10.064;2024-03-02T05:51:06;20.40;54.00
12164;DHT22;6145;50.192;10.064;2024-03-02T05:53:33;20.40;54.00
12164;DHT22;6145;50.192;10.064;2024-03-02T05:56:00;20.40;54.00
12164;DHT22;6145;50.192;10.064;2024-03-02T05:58:27;20.40;54.00
12164;DHT22;6145;50.192;10.064;2024-03-02T06:01:03;20.40;54.00
12164;DHT22;6145;50.192;10.064;2024-03-02T06:03:31;20.30;54.00
12164;DHT22;6145;50.192;10.064;2024-03-02T06:05:59;20.30;54.00
12164;DHT22;6145;50.192;10.064;2024-03-02T06:08:26;20.30;54.00
12164;DHT22;6145;50.192;10.064;2024-03-02T06:10:52;20.30;54.00
12164;DHT22;6145;50.192;10.064;2024-03-02T06:13:19;20.30;54.00
12164;DHT22;6145;50.192;10.064;2024-03-02T06:15:46;20.30;54.00
12164;DHT22;6145;50.192;10.064;2024-03-02T06:18:13;20.30;54.00
12164;DHT22;6145;50.192;10.064;2024-03-02T06:20:39;20.30;54.00
12164;DHT22;6145;50.192;10.064;2024-03-02T06:23:08;20.30;54.00
12164;DHT22;6145;50.192;10.064;2024-03-02T06:25:34;20.30;54.00
12164;DHT22;6145;50.192;10.064;2024-03-02T06:28:01;20.30;54.00
12164;DHT22;6145;50.192;10.064;2024-03-02T06:30:27;20.30;54.10
12164;DHT22;6145;50.192;10.064;2024-03-02T06:32:54;20.20;54.00
12164;DHT22;6145;50.192;10.064;2024-03-02T06:35:20;20.20;54.00
12164;DHT22;6145;50.192;10.064;2024-03-02T06:37:47;20.20;54.50
12164;DHT22;6145;50.192;10.064;2024-03-02T06:40:15;20.20;54.00
12164;DHT22;6145;50.192;10.064;2024-03-02T06:42:42;20.20;54.00
12164;DHT22;6145;50.192;10.064;2024-03-02T06:45:09;20.20;54.00
12164;DHT22;6145;50.192;10.064;2024-03-02T06:47:36;20.20;54.00
12164;DHT22;6145;50.192;10.064;2024-03-02T06:50:03;20.20;54.00
12164;DHT22;6145;50.192;10.064;2024-03-02T06:52:30;20.20;54.00
12164;DHT22;6145;50.192;10.064;2024-03-02T06:54:56;20.20;54.00
12164;DHT22;6145;50.192;10.064;2024-03-02T06:57:25;20.20;54.00
12164;DHT22;6145;50.192;10.064;2024-03-02T06:59:52;20.20;54.20
12164;DHT22;6145;50.192;10.064;2024-03-02T07:02:20;20.30;54.30
12164;DHT22;6145;50.192;10.064;2024-03-02T07:04:48;20.30;54.20
12164;DHT22;6145;50.192;10.064;2024-03-02T07:07:16;20.50;54.20
12164;DHT22;6145;50.192;10.064;2024-03-02T07:09:43;20.60;54.20
12164;DHT22;6145;50.192;10.064;2024-03-02T07:12:10;20.80;54.20
12164;DHT22;6145;50.192;10.064;2024-03-02T07:14:38;20.90;54.10
12164;DHT22;6145;50.192;10.064;2024-03-02T07:17:33;21.00;54.50
12164;DHT22;6145;50.192;10.064;2024-03-02T07:20:00;21.20;54.40
12164;DHT22;6145;50.192;10.064;2024-03-02T07:22:26;21.30;54.40
12164;DHT22;6145;50.192;10.064;2024-03-02T07:24:53;21.50;54.40
12164;DHT22;6145;50.192;10.064;2024-03-02T07:27:20;21.60;54.30
12164;DHT22;6145;50.192;10.064;2024-03-02T07:29:48;21.70;54.30
12164;DHT22;6145;50.192;10.064;2024-03-02T07:32:14;21.90;54.20
12164;DHT22;6145;50.192;10.064;2024-03-02T07:34:41;22.00;54.40
12164;DHT22;6145;50.192;10.064;2024-03-02T07:37:08;22.10;54.40
12164;DHT22;6145;50.192;10.064;2024-03-02T07:39:35;22.20;54.50
12164;DHT22;6145;50.192;10.064;2024-03-02T07:42:02;22.30;54.50
12164;DHT22;6145;50.192;10.064;2024-03-02T07:44:29;22.40;54.40
12164;DHT22;6145;50.192;10.064;2024-03-02T07:46:57;22.50;54.40
12164;DHT22;6145;50.192;10.064;2024-03-02T07:49:24;22.60;54.50
12164;DHT22;6145;50.192;10.064;2024-03-02T07:51:51;22.80;54.60
12164;DHT22;6145;50.192;10.064;2024-03-02T07:54:17;22.90;54.60
12164;DHT22;6145;50.192;10.064;2024-03-02T07:56:45;23.00;54.70
12164;DHT22;6145;50.192;10.064;2024-03-02T07:59:12;23.10;54.80
12164;DHT22;6145;50.192;10.064;2024-03-02T08:01:39;23.20;54.80
12164;DHT22;6145;50.192;10.064;2024-03-02T08:04:07;23.40;54.90
12164;DHT22;6145;50.192;10.064;2024-03-02T08:06:34;23.50;54.90
12164;DHT22;6145;50.192;10.064;2024-03-02T08:09:01;23.60;54.90
12164;DHT22;6145;50.192;10.064;2024-03-02T08:11:30;23.70;54.80
12164;DHT22;6145;50.192;10.064;2024-03-02T08:13:57;23.80;54.90
12164;DHT22;6145;50.192;10.064;2024-03-02T08:16:24;23.90;54.90
12164;DHT22;6145;50.192;10.064;2024-03-02T08:18:51;24.00;54.80
12164;DHT22;6145;50.192;10.064;2024-03-02T08:21:19;24.00;54.70
12164;DHT22;6145;50.192;10.064;2024-03-02T08:23:46;24.10;54.60
12164;DHT22;6145;50.192;10.064;2024-03-02T08:26:13;24.20;54.50
12164;DHT22;6145;50.192;10.064;2024-03-02T08:28:40;24.30;54.50
12164;DHT22;6145;50.192;10.064;2024-03-02T08:31:07;24.40;54.50
12164;DHT22;6145;50.192;10.064;2024-03-02T08:33:34;24.40;54.40
12164;DHT22;6145;50.192;10.064;2024-03-02T08:36:01;24.50;54.30
12164;DHT22;6145;50.192;10.064;2024-03-02T08:38:29;24.60;54.20
12164;DHT22;6145;50.192;10.064;2024-03-02T08:40:56;24.70;54.20
12164;DHT22;6145;50.192;10.064;2024-03-02T08:43:23;24.70;54.20
12164;DHT22;6145;50.192;10.064;2024-03-02T08:47:10;24.70;53.20
12164;DHT22;6145;50.192;10.064;2024-03-02T08:49:37;24.40;53.60
12164;DHT22;6145;50.192;10.064;2024-03-02T08:52:04;24.00;54.10
12164;DHT22;6145;50.192;10.064;2024-03-02T08:54:31;23.60;54.90
12164;DHT22;6145;50.192;10.064;2024-03-02T08:56:59;23.30;55.30
12164;DHT22;6145;50.192;10.064;2024-03-02T08:59:26;23.10;55.80
12164;DHT22;6145;50.192;10.064;2024-03-02T09:01:53;22.90;56.30
12164;DHT22;6145;50.192;10.064;2024-03-02T09:04:21;22.80;56.70
12164;DHT22;6145;50.192;10.064;2024-03-02T09:06:48;22.70;57.20
12164;DHT22;6145;50.192;10.064;2024-03-02T09:09:14;22.60;57.50
12164;DHT22;6145;50.192;10.064;2024-03-02T09:11:41;22.50;57.80
12164;DHT22;6145;50.192;10.064;2024-03-02T09:14:08;22.50;58.00
12164;DHT22;6145;50.192;10.064;2024-03-02T09:16:35;22.50;58.20
12164;DHT22;6145;50.192;10.064;2024-03-02T09:19:01;22.50;58.20
12164;DHT22;6145;50.192;10.064;2024-03-02T09:21:29;22.40;58.20
12164;DHT22;6145;50.192;10.064;2024-03-02T09:23:56;22.40;58.10
12164;DHT22;6145;50.192;10.064;2024-03-02T09:26:23;22.50;58.20
12164;DHT22;6145;50.192;10.064;2024-03-02T09:28:50;22.50;58.20
12164;DHT22;6145;50.192;10.064;2024-03-02T09:31:17;22.50;58.10
12164;DHT22;6145;50.192;10.064;2024-03-02T09:33:42;22.50;58.10
12164;DHT22;6145;50.192;10.064;2024-03-02T09:36:17;22.50;58.10
12164;DHT22;6145;50.192;10.064;2024-03-02T09:38:45;22.50;58.00
12164;DHT22;6145;50.192;10.064;2024-03-02T09:41:12;22.50;57.90
12164;DHT22;6145;50.192;10.064;2024-03-02T09:43:40;22.50;57.80
12164;DHT22;6145;50.192;10.064;2024-03-02T09:46:07;22.50;57.90
12164;DHT22;6145;50.192;10.064;2024-03-02T09:48:35;22.60;58.00
12164;DHT22;6145;50.192;10.064;2024-03-02T09:51:02;22.60;58.00
12164;DHT22;6145;50.192;10.064;2024-03-02T09:53:32;22.60;58.10
12164;DHT22;6145;50.192;10.064;2024-03-02T09:56:00;22.60;57.80
12164;DHT22;6145;50.192;10.064;2024-03-02T09:58:27;22.60;57.80
12164;DHT22;6145;50.192;10.064;2024-03-02T10:00:54;22.60;58.30
12164;DHT22;6145;50.192;10.064;2024-03-02T10:03:23;22.60;58.70
12164;DHT22;6145;50.192;10.064;2024-03-02T10:05:50;22.70;59.10
12164;DHT22;6145;50.192;10.064;2024-03-02T10:08:17;22.70;59.30
12164;DHT22;6145;50.192;10.064;2024-03-02T10:10:44;22.70;58.90
12164;DHT22;6145;50.192;10.064;2024-03-02T10:13:13;22.70;58.80
12164;DHT22;6145;50.192;10.064;2024-03-02T10:15:40;22.70;58.60
12164;DHT22;6145;50.192;10.064;2024-03-02T10:18:09;22.70;58.50
12164;DHT22;6145;50.192;10.064;2024-03-02T10:20:37;22.70;58.30
12164;DHT22;6145;50.192;10.064;2024-03-02T10:23:11;22.70;58.20
12164;DHT22;6145;50.192;10.064;2024-03-02T10:25:38;22.60;58.00
12164;DHT22;6145;50.192;10.064;2024-03-02T10:28:05;22.70;58.00
12164;DHT22;6145;50.192;10.064;2024-03-02T10:30:34;22.60;57.80
12164;DHT22;6145;50.192;10.064;2024-03-02T10:33:01;22.60;57.70
12164;DHT22;6145;50.192;10.064;2024-03-02T10:35:28;22.60;57.60
12164;DHT22;6145;50.192;10.064;2024-03-02T10:37:58;22.60;57.50
12164;DHT22;6145;50.192;10.064;2024-03-02T10:40:26;22.60;57.40
12164;DHT22;6145;50.192;10.064;2024-03-02T10:42:53;22.60;57.30
12164;DHT22;6145;50.192;10.064;2024-03-02T10:45:20;22.60;57.30
12164;DHT22;6145;50.192;10.064;2024-03-02T10:47:49;22.50;57.10
12164;DHT22;6145;50.192;10.064;2024-03-02T10:50:17;22.50;57.20
12164;DHT22;6145;50.192;10.064;2024-03-02T10:52:44;22.50;57.10
12164;DHT22;6145;50.192;10.064;2024-03-02T10:55:11;22.40;57.10
12164;DHT22;6145;50.192;10.064;2024-03-02T10:57:45;22.40;57.00
12164;DHT22;6145;50.192;10.064;2024-03-02T11:00:17;22.40;57.10
12164;DHT22;6145;50.192;10.064;2024-03-02T11:02:52;22.30;56.90
12164;DHT22;6145;50.192;10.064;2024-03-02T11:05:27;22.30;57.50
12164;DHT22;6145;50.192;10.064;2024-03-02T11:07:57;22.30;56.90
12164;DHT22;6145;50.192;10.064;2024-03-02T11:10:27;22.30;56.90
12164;DHT22;6145;50.192;10.064;2024-03-02T11:13:00;22.30;56.90
12164;DHT22;6145;50.192;10.064;2024-03-02T11:15:28;22.20;56.70
12164;DHT22;6145;50.192;10.064;2024-03-02T11:17:58;22.20;56.70
12164;DHT22;6145;50.192;10.064;2024-03-02T11:20:25;22.20;56.70
12164;DHT22;6145;50.192;10.064;2024-03-02T11:22:54;22.20;56.60
12164;DHT22;6145;50.192;10.064;2024-03-02T11:25:24;22.20;56.60
12164;DHT22;6145;50.192;10.064;2024-03-02T11:28:04;22.20;56.60
12164;DHT22;6145;50.192;10.064;2024-03-02T11:30:49;22.20;56.70
12164;DHT22;6145;50.192;10.064;2024-03-02T11:33:23;22.10;56.50
12164;DHT22;6145;50.192;10.064;2024-03-02T11:35:52;22.20;56.60
12164;DHT22;6145;50.192;10.064;2024-03-02T11:38:19;22.10;56.50
12164;DHT22;6145;50.192;10.064;2024-03-02T11:40:46;22.10;56.40
12164;DHT22;6145;50.192;10.064;2024-03-02T11:43:13;22.10;56.40
12164;DHT22;6145;50.192;10.064;2024-03-02T11:45:43;22.10;56.40
12164;DHT22;6145;50.192;10.064;2024-03-02T11:48:11;22.10;56.40
12164;DHT22;6145;50.192;10.064;2024-03-02T11:50:43;22.10;56.40
12164;DHT22;6145;50.192;10.064;2024-03-02T11:53:13;22.10;56.40
12164;DHT22;6145;50.192;10.064;2024-03-02T11:55:39;22.10;56.30
12164;DHT22;6145;50.192;10.064;2024-03-02T11:58:07;22.10;56.20
12164;DHT22;6145;50.192;10.064;2024-03-02T12:00:34;22.10;56.20
12164;DHT22;6145;50.192;10.064;2024-03-02T12:03:02;22.10;56.20
12164;DHT22;6145;50.192;10.064;2024-03-02T12:05:30;22.00;56.10
12164;DHT22;6145;50.192;10.064;2024-03-02T12:08:00;22.10;56.20
12164;DHT22;6145;50.192;10.064;2024-03-02T12:10:27;22.00;56.00
12164;DHT22;6145;50.192;10.064;2024-03-02T12:12:57;22.10;56.10
12164;DHT22;6145;50.192;10.064;2024-03-02T12:15:26;22.00;56.00
12164;DHT22;6145;50.192;10.064;2024-03-02T12:17:54;22.00;55.90
12164;DHT22;6145;50.192;10.064;2024-03-02T12:20:21;22.10;56.00
12164;DHT22;6145;50.192;10.064;2024-03-02T12:22:49;22.10;56.00
12164;DHT22;6145;50.192;10.064;2024-03-02T12:25:17;22.10;55.90
12164;DHT22;6145;50.192;10.064;2024-03-02T12:27:44;22.10;55.90
12164;DHT22;6145;50.192;10.064;2024-03-02T12:30:11;22.10;55.80
12164;DHT22;6145;50.192;10.064;2024-03-02T12:32:39;22.10;55.80
12164;DHT22;6145;50.192;10.064;2024-03-02T12:35:07;22.10;55.80
12164;DHT22;6145;50.192;10.064;2024-03-02T12:37:42;22.10;55.80
12164;DHT22;6145;50.192;10.064;2024-03-02T12:40:10;22.10;55.80
12164;DHT22;6145;50.192;10.064;2024-03-02T12:42:38;22.10;55.80
12164;DHT22;6145;50.192;10.064;2024-03-02T12:45:05;22.20;55.90
12164;DHT22;6145;50.192;10.064;2024-03-02T12:47:33;22.20;55.90
12164;DHT22;6145;50.192;10.064;2024-03-02T12:49:59;22.20;55.90
12164;DHT22;6145;50.192;10.064;2024-03-02T12:52:26;22.20;55.90
12164;DHT22;6145;50.192;10.064;2024-03-02T12:54:54;22.20;55.90
12164;DHT22;6145;50.192;10.064;2024-03-02T12:57:25;22.30;55.90
12164;DHT22;6145;50.192;10.064;2024-03-02T12:59:57;22.30;55.90
12164;DHT22;6145;50.192;10.064;2024-03-02T13:02:28;22.30;55.80
12164;DHT22;6145;50.192;10.064;2024-03-02T13:04:55;22.40;55.90
12164;DHT22;6145;50.192;10.064;2024-03-02T13:07:23;22.40;55.80
12164;DHT22;6145;50.192;10.064;2024-03-02T13:09:50;22.50;55.70
12164;DHT22;6145;50.192;10.064;2024-03-02T13:12:18;22.50;55.60
12164;DHT22;6145;50.192;10.064;2024-03-02T13:14:48;22.60;55.60
12164;DHT22;6145;50.192;10.064;2024-03-02T13:17:17;22.60;55.40
12164;DHT22;6145;50.192;10.064;2024-03-02T13:19:51;22.60;55.30
12164;DHT22;6145;50.192;10.064;2024-03-02T13:22:18;22.70;55.30
12164;DHT22;6145;50.192;10.064;2024-03-02T13:24:45;22.80;55.20
12164;DHT22;6145;50.192;10.064;2024-03-02T13:27:12;22.80;55.10
12164;DHT22;6145;50.192;10.064;2024-03-02T13:29:39;22.80;55.00
12164;DHT22;6145;50.192;10.064;2024-03-02T13:32:06;22.90;55.60
12164;DHT22;6145;50.192;10.064;2024-03-02T13:34:34;22.90;54.80
12164;DHT22;6145;50.192;10.064;2024-03-02T13:37:01;23.00;55.00
12164;DHT22;6145;50.192;10.064;2024-03-02T13:39:28;23.00;55.10
12164;DHT22;6145;50.192;10.064;2024-03-02T13:41:56;23.10;55.30
12164;DHT22;6145;50.192;10.064;2024-03-02T13:44:29;23.20;55.70
12164;DHT22;6145;50.192;10.064;2024-03-02T13:46:56;23.20;55.90
12164;DHT22;6145;50.192;10.064;2024-03-02T13:49:23;23.30;56.20
12164;DHT22;6145;50.192;10.064;2024-03-02T13:51:55;23.40;56.70
12164;DHT22;6145;50.192;10.064;2024-03-02T13:54:22;23.40;56.80
12164;DHT22;6145;50.192;10.064;2024-03-02T13:56:49;23.50;57.00
12164;DHT22;6145;50.192;10.064;2024-03-02T13:59:15;23.50;57.20
12164;DHT22;6145;50.192;10.064;2024-03-02T14:01:42;23.60;57.30
12164;DHT22;6145;50.192;10.064;2024-03-02T14:04:09;23.70;57.40
12164;DHT22;6145;50.192;10.064;2024-03-02T14:06:36;23.80;57.50
12164;DHT22;6145;50.192;10.064;2024-03-02T14:09:04;23.80;57.50
12164;DHT22;6145;50.192;10.064;2024-03-02T14:11:31;23.90;57.50
12164;DHT22;6145;50.192;10.064;2024-03-02T14:13:57;23.90;57.40
12164;DHT22;6145;50.192;10.064;2024-03-02T14:16:24;24.00;57.40
12164;DHT22;6145;50.192;10.064;2024-03-02T14:18:51;24.00;57.30
12164;DHT22;6145;50.192;10.064;2024-03-02T14:21:18;24.10;57.30
12164;DHT22;6145;50.192;10.064;2024-03-02T14:23:44;24.10;57.20
12164;DHT22;6145;50.192;10.064;2024-03-02T14:26:12;24.20;57.30
12164;DHT22;6145;50.192;10.064;2024-03-02T14:28:39;24.20;57.20
12164;DHT22;6145;50.192;10.064;2024-03-02T14:31:06;24.30;57.30
12164;DHT22;6145;50.192;10.064;2024-03-02T14:33:32;24.30;57.20
12164;DHT22;6145;50.192;10.064;2024-03-02T14:35:59;24.40;57.20
12164;DHT22;6145;50.192;10.064;2024-03-02T14:38:26;24.40;57.20
12164;DHT22;6145;50.192;10.064;2024-03-02T14:40:54;24.40;57.10
12164;DHT22;6145;50.192;10.064;2024-03-02T14:43:22;24.50;57.20
12164;DHT22;6145;50.192;10.064;2024-03-02T14:45:49;24.50;57.20
12164;DHT22;6145;50.192;10.064;2024-03-02T14:48:16;24.50;57.00
12164;DHT22;6145;50.192;10.064;2024-03-02T14:50:42;24.50;57.10
12164;DHT22;6145;50.192;10.064;2024-03-02T14:53:09;24.50;57.10
12164;DHT22;6145;50.192;10.064;2024-03-02T14:55:36;24.50;57.20
12164;DHT22;6145;50.192;10.064;2024-03-02T14:58:03;24.50;57.20
12164;DHT22;6145;50.192;10.064;2024-03-02T15:00:31;24.50;57.30
12164;DHT22;6145;50.192;10.064;2024-03-02T15:02:58;24.40;57.40
12164;DHT22;6145;50.192;10.064;2024-03-02T15:05:25;24.30;58.10
12164;DHT22;6145;50.192;10.064;2024-03-02T15:07:52;24.30;57.60
12164;DHT22;6145;50.192;10.064;2024-03-02T15:10:19;24.20;57.60
12164;DHT22;6145;50.192;10.064;2024-03-02T15:12:46;24.20;57.70
12164;DHT22;6145;50.192;10.064;2024-03-02T15:15:13;24.10;57.70
12164;DHT22;6145;50.192;10.064;2024-03-02T15:17:41;24.10;57.70
12164;DHT22;6145;50.192;10.064;2024-03-02T15:20:08;24.10;58.40
12164;DHT22;6145;50.192;10.064;2024-03-02T15:22:35;24.10;57.70
12164;DHT22;6145;50.192;10.064;2024-03-02T15:25:01;24.00;57.70
12164;DHT22;6145;50.192;10.064;2024-03-02T15:27:28;24.10;57.70
12164;DHT22;6145;50.192;10.064;2024-03-02T15:29:55;24.10;57.60
12164;DHT22;6145;50.192;10.064;2024-03-02T15:32:23;24.10;57.50
12164;DHT22;6145;50.192;10.064;2024-03-02T15:34:53;24.10;57.20
12164;DHT22;6145;50.192;10.064;2024-03-02T15:37:20;24.10;57.10